Rochdale, Massachusetts
Current Conditions -  °F | °C
As of 12:54 AM on Thursday 18 Dec 2014 (Local Time) from KORH Reporting Station
Broken Clouds Broken Clouds  
Wind Chill: 22°   Ceiling: 8000
Heat Index: 34°   Visibility: 10mi
Dew Point: 29°   Wind: 23mph
Humidity: 82%   Direction: 280°W
Pressure: 29.69"   Gusts: 35mph
Location:  42.19°N, 71.91°W
Report Text: KORH 180554Z AUTO 28020G30KT 10SM SCT070 BKN080 01/M02 A2969 RMK AO2 PK WND 29030/0549 SLP061 T00111017 10039 20011 58018
Loading
Personal Weather Stations






























Interactive Weather Map New forecast layout! Learn more

10-Day Weather Forecast

Advertisements
Track Severe Weather on mobile